createdAt,value
2018-02-09T00:01:28.470Z,44.70
2018-02-09T00:04:02.892Z,46.60
2018-02-09T00:06:37.619Z,47.27
2018-02-09T00:09:12.904Z,46.10
2018-02-09T00:11:47.133Z,44.03
2018-02-09T00:14:21.857Z,45.93
2018-02-09T00:16:56.652Z,47.63
2018-02-09T00:19:31.868Z,44.67
2018-02-09T00:22:07.822Z,45.30
2018-02-09T00:24:45.723Z,45.73
2018-02-09T00:27:19.754Z,46.33
2018-02-09T00:29:55.309Z,47.57
2018-02-09T00:32:31.449Z,48.23
2018-02-09T00:35:07.011Z,49.10
2018-02-09T00:37:42.025Z,49.80
2018-02-09T00:40:16.959Z,47.17
2018-02-09T00:42:51.889Z,46.90
2018-02-09T00:45:26.209Z,47.37
2018-02-09T00:48:00.907Z,47.07
2018-02-09T00:50:35.765Z,46.13
2018-02-09T00:53:10.486Z,46.60
2018-02-09T00:55:46.344Z,44.37
2018-02-09T00:58:21.066Z,44.90
2018-02-09T01:00:55.579Z,45.50
2018-02-09T01:03:31.488Z,45.90
2018-02-09T01:06:06.821Z,45.37
2018-02-09T01:08:40.936Z,44.87
2018-02-09T01:11:15.420Z,44.50
2018-02-09T01:13:50.460Z,44.77
2018-02-09T01:16:25.490Z,45.93
2018-02-09T01:19:01.306Z,45.20
2018-02-09T01:21:35.319Z,43.77
2018-02-09T01:24:10.732Z,44.20
2018-02-09T01:26:45.112Z,45.13
2018-02-09T01:29:20.457Z,43.37
2018-02-09T01:31:54.977Z,43.67
2018-02-09T01:34:29.701Z,43.73
2018-02-09T01:37:04.738Z,43.13
2018-02-09T01:39:38.890Z,43.77
2018-02-09T01:42:12.623Z,45.67
2018-02-09T01:44:46.528Z,43.77
2018-02-09T01:47:20.384Z,42.93
2018-02-09T01:50:06.187Z,42.37
2018-02-09T01:52:41.069Z,43.07
2018-02-09T01:55:15.054Z,45.17
2018-02-09T01:57:49.721Z,43.53
2018-02-09T02:00:24.268Z,42.77
2018-02-09T02:02:58.339Z,43.10
2018-02-09T02:05:33.091Z,44.37
2018-02-09T02:08:07.229Z,42.87
2018-02-09T02:10:41.084Z,44.10
2018-02-09T02:13:15.703Z,45.27
2018-02-09T02:15:49.692Z,44.57
2018-02-09T02:18:23.349Z,44.13
2018-02-09T02:20:57.143Z,43.83
2018-02-09T02:23:31.842Z,41.80
2018-02-09T02:26:05.685Z,44.87
2018-02-09T02:28:40.444Z,43.13
2018-02-09T02:31:15.055Z,42.33
2018-02-09T02:33:48.920Z,43.33
2018-02-09T02:36:24.395Z,42.43
2018-02-09T02:38:58.519Z,44.63
2018-02-09T02:41:32.361Z,43.10
2018-02-09T02:44:06.188Z,43.80
2018-02-09T02:46:39.971Z,44.80
2018-02-09T02:49:13.804Z,44.53
2018-02-09T02:51:48.456Z,44.80
2018-02-09T02:54:23.476Z,44.83
2018-02-09T02:56:57.547Z,45.03
2018-02-09T02:59:31.172Z,44.63
2018-02-09T03:02:05.011Z,45.23
2018-02-09T03:04:38.758Z,44.53
2018-02-09T03:07:12.610Z,44.87
2018-02-09T03:09:46.539Z,44.00
2018-02-09T03:12:20.687Z,42.87
2018-02-09T03:14:55.133Z,44.37
2018-02-09T03:17:29.221Z,46.03
2018-02-09T03:20:03.195Z,46.70
2018-02-09T03:22:37.351Z,45.13
2018-02-09T03:25:11.883Z,47.00
2018-02-09T03:27:45.966Z,44.27
2018-02-09T03:30:19.656Z,44.93
2018-02-09T03:32:53.659Z,44.87
2018-02-09T03:35:29.062Z,46.23
2018-02-09T03:38:03.551Z,45.53
2018-02-09T03:40:37.435Z,44.80
2018-02-09T03:43:12.350Z,45.07
2018-02-09T03:45:47.057Z,45.33
2018-02-09T03:48:21.363Z,46.50
2018-02-09T03:50:56.092Z,45.27
2018-02-09T03:53:30.048Z,45.53
2018-02-09T03:56:04.723Z,43.77
2018-02-09T03:58:38.815Z,45.10
2018-02-09T04:01:13.348Z,43.60
2018-02-09T04:03:47.246Z,46.20
2018-02-09T04:06:21.785Z,44.93
2018-02-09T04:08:55.981Z,43.53
2018-02-09T04:11:29.827Z,45.63
2018-02-09T04:14:04.572Z,45.70
2018-02-09T04:16:38.514Z,43.23
2018-02-09T04:19:13.015Z,44.37
2018-02-09T04:21:47.727Z,42.67
2018-02-09T04:24:21.756Z,44.17
2018-02-09T04:26:55.547Z,43.67
2018-02-09T04:29:30.562Z,43.13
2018-02-09T04:32:05.905Z,44.00
2018-02-09T04:34:39.866Z,42.17
2018-02-09T04:37:13.722Z,43.23
2018-02-09T04:39:47.892Z,39.90
2018-02-09T04:42:21.537Z,41.03
2018-02-09T04:44:55.472Z,41.30
2018-02-09T04:47:29.308Z,40.90
2018-02-09T04:50:03.156Z,41.37
2018-02-09T04:52:38.495Z,41.50
2018-02-09T04:55:12.918Z,40.17
2018-02-09T04:57:47.421Z,39.37
2018-02-09T05:00:22.765Z,42.17
2018-02-09T05:02:57.274Z,38.63
2018-02-09T05:05:31.181Z,40.40
2018-02-09T05:08:06.020Z,38.43
2018-02-09T05:10:40.790Z,38.73
2018-02-09T05:13:15.597Z,35.60
2018-02-09T05:15:50.856Z,37.37
2018-02-09T05:18:25.091Z,37.60
2018-02-09T05:20:59.603Z,36.97
2018-02-09T05:23:33.707Z,37.67
2018-02-09T05:26:09.291Z,36.90
2018-02-09T05:28:43.308Z,40.27
2018-02-09T05:31:16.966Z,37.17
2018-02-09T05:33:51.572Z,35.73
2018-02-09T05:36:26.404Z,36.23
2018-02-09T05:39:00.545Z,35.80
2018-02-09T05:41:34.734Z,34.73
2018-02-09T05:44:10.479Z,35.60
2018-02-09T05:46:45.034Z,35.20
2018-02-09T05:49:18.998Z,36.80
2018-02-09T05:51:53.591Z,34.57
2018-02-09T05:54:28.360Z,34.87
2018-02-09T05:57:02.245Z,33.83
2018-02-09T05:59:36.076Z,35.03
2018-02-09T06:02:09.942Z,36.50
2018-02-09T06:04:43.571Z,34.83
2018-02-09T06:07:17.335Z,35.33
2018-02-09T06:09:51.996Z,33.97
2018-02-09T06:12:25.977Z,34.87
2018-02-09T06:15:00.649Z,33.80
2018-02-09T06:17:35.306Z,33.40
2018-02-09T06:20:10.013Z,32.50
2018-02-09T06:22:44.458Z,35.13
2018-02-09T06:25:18.466Z,36.87
2018-02-09T06:27:52.286Z,36.17
2018-02-09T06:30:26.203Z,38.47
2018-02-09T06:33:00.111Z,37.03
2018-02-09T06:35:34.775Z,37.43
2018-02-09T06:38:08.543Z,37.73
2018-02-09T06:40:43.151Z,36.70
2018-02-09T06:43:17.042Z,38.33
2018-02-09T06:45:51.640Z,39.13
2018-02-09T06:48:26.373Z,39.70
2018-02-09T06:51:00.404Z,40.23
2018-02-09T06:53:35.112Z,38.87
2018-02-09T06:56:09.039Z,38.43
2018-02-09T06:58:43.757Z,40.10
2018-02-09T07:01:18.674Z,37.43
2018-02-09T07:03:52.839Z,39.97
2018-02-09T07:06:27.603Z,41.07
2018-02-09T07:09:01.768Z,41.57
2018-02-09T07:11:35.582Z,38.67
2018-02-09T07:14:10.282Z,38.40
2018-02-09T07:16:44.374Z,38.50
2018-02-09T07:19:18.812Z,38.80
2018-02-09T07:21:53.410Z,39.43
2018-02-09T07:24:27.527Z,42.10
2018-02-09T07:27:01.267Z,38.17
2018-02-09T07:29:35.431Z,41.00
2018-02-09T07:32:15.220Z,40.40
2018-02-09T07:34:50.147Z,41.40
2018-02-09T07:37:24.056Z,40.37
2018-02-09T07:39:58.799Z,35.90
2018-02-09T07:42:32.724Z,41.17
2018-02-09T07:45:07.306Z,41.67
2018-02-09T07:47:41.292Z,39.67
2018-02-09T07:50:15.851Z,40.07
2018-02-09T07:52:49.969Z,39.93
2018-02-09T07:55:24.671Z,37.77
2018-02-09T07:57:58.501Z,40.97
2018-02-09T08:00:32.275Z,39.10
2018-02-09T08:03:06.331Z,40.43
2018-02-09T08:05:40.190Z,39.90
2018-02-09T08:08:15.015Z,39.37
2018-02-09T08:10:49.986Z,40.33
2018-02-09T08:13:23.880Z,38.30
2018-02-09T08:15:57.796Z,41.10
2018-02-09T08:18:33.323Z,39.77
2018-02-09T08:21:08.170Z,41.57
2018-02-09T08:23:42.223Z,39.77
2018-02-09T08:26:16.935Z,43.73
2018-02-09T08:28:50.779Z,44.57
2018-02-09T08:31:24.617Z,42.40
2018-02-09T08:33:58.548Z,45.10
2018-02-09T08:36:33.054Z,45.60
2018-02-09T08:39:06.924Z,44.20
2018-02-09T08:41:40.771Z,43.37
2018-02-09T08:44:15.356Z,43.53
2018-02-09T08:46:49.371Z,42.73
2018-02-09T08:49:23.221Z,42.53
2018-02-09T08:51:58.023Z,42.90
2018-02-09T08:54:32.036Z,40.37
2018-02-09T08:57:06.047Z,37.37
2018-02-09T08:59:40.675Z,40.87
2018-02-09T09:02:14.476Z,42.00
2018-02-09T09:04:48.198Z,39.13
2018-02-09T09:07:22.240Z,39.97
2018-02-09T09:09:55.897Z,40.40
2018-02-09T09:12:29.755Z,38.17
2018-02-09T09:15:04.394Z,38.67
2018-02-09T09:17:38.542Z,39.00
2018-02-09T09:20:13.129Z,38.93
2018-02-09T09:22:47.232Z,39.60
2018-02-09T09:25:22.584Z,37.90
2018-02-09T09:27:56.770Z,39.80
2018-02-09T09:30:32.072Z,38.90
2018-02-09T09:33:06.168Z,39.17
2018-02-09T09:35:39.893Z,37.97
2018-02-09T09:38:14.307Z,37.73
2018-02-09T09:40:48.334Z,38.57
2018-02-09T09:43:22.122Z,38.57
2018-02-09T09:45:55.911Z,37.93
2018-02-09T09:48:30.454Z,38.03
2018-02-09T09:51:04.677Z,38.03
2018-02-09T09:53:38.422Z,37.87
2018-02-09T09:56:13.063Z,37.43
2018-02-09T09:58:47.300Z,34.33
2018-02-09T10:01:26.690Z,35.63
2018-02-09T10:04:00.932Z,36.27
2018-02-09T10:06:35.561Z,35.27
2018-02-09T10:09:09.544Z,36.73
2018-02-09T10:11:43.305Z,34.77
2018-02-09T10:14:17.129Z,34.57
2018-02-09T10:16:51.835Z,35.40
2018-02-09T10:19:26.490Z,34.30
2018-02-09T10:22:00.402Z,34.47
2018-02-09T10:24:35.175Z,33.53
2018-02-09T10:27:09.053Z,31.57
2018-02-09T10:29:42.896Z,33.47
2018-02-09T10:32:17.585Z,33.00
2018-02-09T10:34:51.835Z,32.17
2018-02-09T10:37:27.166Z,33.27
2018-02-09T10:40:01.054Z,32.40
2018-02-09T10:42:34.808Z,33.73
2018-02-09T10:45:08.598Z,34.00
2018-02-09T10:47:43.102Z,31.70
2018-02-09T10:50:17.046Z,33.07
2018-02-09T10:52:51.530Z,33.73
2018-02-09T10:55:25.615Z,33.33
2018-02-09T10:57:59.367Z,34.90
2018-02-09T11:03:38.530Z,34.03
2018-02-09T11:06:13.239Z,35.77
2018-02-09T11:08:46.875Z,35.67
2018-02-09T11:11:23.327Z,35.73
2018-02-09T11:13:57.354Z,35.27
2018-02-09T11:16:31.318Z,36.47
2018-02-09T11:19:05.147Z,34.27
2018-02-09T11:21:39.102Z,33.20
2018-02-09T11:24:12.809Z,35.87
2018-02-09T11:26:46.715Z,35.43
2018-02-09T11:29:20.490Z,34.47
2018-02-09T11:31:55.207Z,33.43
2018-02-09T11:34:29.187Z,33.53
2018-02-09T11:37:02.971Z,35.63
2018-02-09T11:39:36.728Z,36.10
2018-02-09T11:42:10.412Z,36.07
2018-02-09T11:44:44.918Z,37.07
2018-02-09T11:47:18.891Z,36.93
2018-02-09T11:49:53.467Z,34.73
2018-02-09T11:52:28.423Z,35.17
2018-02-09T11:55:02.448Z,35.27
2018-02-09T11:57:36.945Z,37.10
2018-02-09T12:00:10.951Z,35.53
2018-02-09T12:02:44.860Z,34.53
2018-02-09T12:05:19.498Z,35.33
2018-02-09T12:07:53.347Z,36.17
2018-02-09T12:10:27.086Z,37.63
2018-02-09T12:13:00.866Z,35.53
2018-02-09T12:15:35.396Z,36.30
2018-02-09T12:18:09.425Z,35.53
2018-02-09T12:20:43.148Z,35.97
2018-02-09T12:23:16.937Z,35.03
2018-02-09T12:25:51.363Z,36.97
2018-02-09T12:28:26.300Z,35.37
2018-02-09T12:31:00.214Z,37.13
2018-02-09T12:33:34.995Z,36.60
2018-02-09T12:36:08.654Z,35.63
2018-02-09T12:38:42.423Z,36.57
2018-02-09T12:41:16.040Z,36.07
2018-02-09T12:43:49.706Z,34.43
2018-02-09T12:46:24.320Z,37.23
2018-02-09T12:48:58.135Z,36.27
2018-02-09T12:51:31.846Z,37.13
2018-02-09T12:54:05.477Z,36.03
2018-02-09T12:56:39.240Z,36.13
2018-02-09T12:59:13.253Z,37.27
2018-02-09T13:01:47.938Z,34.90
2018-02-09T13:04:22.431Z,35.73
2018-02-09T13:06:56.374Z,38.13
2018-02-09T13:09:30.974Z,36.00
2018-02-09T13:12:05.050Z,36.97
2018-02-09T13:14:49.277Z,35.90
2018-02-09T13:17:23.638Z,35.83
2018-02-09T13:19:57.411Z,36.40
2018-02-09T13:22:43.083Z,36.50
2018-02-09T13:25:16.795Z,37.00
2018-02-09T13:27:50.762Z,37.90
2018-02-09T13:30:24.667Z,37.27
2018-02-09T13:33:11.437Z,38.03
2018-02-09T13:35:45.100Z,37.03
2018-02-09T13:38:19.796Z,37.90
2018-02-09T13:40:55.357Z,36.23
2018-02-09T13:43:29.638Z,37.43
2018-02-09T13:46:03.415Z,37.30
2018-02-09T13:48:37.059Z,38.20
2018-02-09T13:51:11.090Z,39.10
2018-02-09T13:53:44.800Z,35.50
2018-02-09T13:56:19.305Z,39.20
2018-02-09T13:58:53.229Z,36.67
2018-02-09T14:01:27.752Z,39.07
2018-02-09T14:04:01.768Z,37.03
2018-02-09T14:06:36.184Z,36.10
2018-02-09T14:09:10.187Z,35.13
2018-02-09T14:11:44.924Z,36.80
2018-02-09T14:14:18.767Z,36.23
2018-02-09T14:16:52.574Z,36.90
2018-02-09T14:19:27.029Z,36.70
2018-02-09T14:22:01.107Z,36.03
2018-02-09T14:24:34.939Z,36.47
2018-02-09T14:27:09.584Z,34.93
2018-02-09T14:29:43.502Z,35.03
2018-02-09T14:32:18.019Z,34.43
2018-02-09T14:34:52.918Z,32.93
2018-02-09T14:37:27.013Z,35.43
2018-02-09T14:40:00.659Z,35.77
2018-02-09T14:42:34.472Z,34.43
2018-02-09T14:45:08.215Z,34.37
2018-02-09T14:47:42.110Z,33.93
2018-02-09T14:50:15.944Z,33.27
2018-02-09T14:52:50.648Z,34.40
2018-02-09T14:55:24.319Z,34.87
2018-02-09T14:57:58.874Z,33.90
2018-02-09T15:00:32.647Z,34.93
2018-02-09T15:03:06.533Z,34.10
2018-02-09T15:05:40.261Z,34.57
2018-02-09T15:08:14.972Z,33.57
2018-02-09T15:10:48.704Z,31.67
2018-02-09T15:13:22.630Z,34.50
2018-02-09T15:15:56.624Z,32.43
2018-02-09T15:18:30.379Z,31.60
2018-02-09T15:21:04.055Z,32.47
2018-02-09T15:23:38.643Z,32.03
2018-02-09T15:26:12.627Z,32.40
2018-02-09T15:28:46.435Z,32.10
2018-02-09T15:31:20.956Z,33.60
2018-02-09T15:33:55.085Z,31.87
2018-02-09T15:36:29.485Z,33.53
2018-02-09T15:39:03.654Z,32.00
2018-02-09T15:41:37.477Z,32.23
2018-02-09T15:44:11.247Z,32.07
2018-02-09T15:46:44.903Z,32.40
2018-02-09T15:49:19.591Z,30.53
2018-02-09T15:51:53.472Z,30.83
2018-02-09T15:54:27.998Z,33.20
2018-02-09T15:57:01.915Z,31.83
2018-02-09T15:59:35.846Z,30.80
2018-02-09T16:02:09.870Z,30.93
2018-02-09T16:04:44.738Z,31.07
2018-02-09T16:07:19.106Z,32.07
2018-02-09T16:09:52.902Z,32.70
2018-02-09T16:12:27.494Z,31.27
2018-02-09T16:15:01.270Z,31.30
2018-02-09T16:17:35.002Z,30.93
2018-02-09T16:20:09.634Z,29.60
2018-02-09T16:22:43.541Z,30.80
2018-02-09T16:25:18.152Z,30.17
2018-02-09T16:27:51.978Z,31.63
2018-02-09T16:30:26.594Z,31.93
2018-02-09T16:33:00.507Z,31.33
2018-02-09T16:35:34.305Z,30.80
2018-02-09T16:38:08.187Z,30.57
2018-02-09T16:40:42.007Z,32.20
2018-02-09T16:43:16.764Z,31.50
2018-02-09T16:45:50.573Z,30.63
2018-02-09T16:48:24.364Z,33.30
2018-02-09T16:50:58.159Z,33.33
2018-02-09T16:53:31.859Z,33.20
2018-02-09T16:56:05.712Z,34.23
2018-02-09T16:58:40.275Z,32.57
2018-02-09T17:01:14.344Z,33.13
2018-02-09T17:03:48.157Z,32.90
2018-02-09T17:06:21.929Z,34.80
2018-02-09T17:08:55.664Z,34.90
2018-02-09T17:11:30.326Z,34.47
2018-02-09T17:14:04.100Z,34.47
2018-02-09T17:16:37.878Z,36.20
2018-02-09T17:19:11.667Z,35.87
2018-02-09T17:21:46.384Z,35.93
2018-02-09T17:24:20.071Z,37.40
2018-02-09T17:26:54.528Z,36.10
2018-02-09T17:29:28.345Z,34.97
2018-02-09T17:32:02.151Z,36.20
2018-02-09T17:34:35.787Z,36.50
2018-02-09T17:37:09.516Z,36.87
2018-02-09T17:39:44.065Z,36.43
2018-02-09T17:42:18.009Z,36.67
2018-02-09T17:44:52.605Z,38.70
2018-02-09T17:47:26.555Z,38.67
2018-02-09T17:50:02.116Z,41.53
2018-02-09T17:52:36.199Z,37.17
2018-02-09T17:55:09.832Z,36.60
2018-02-09T17:57:46.020Z,37.17
2018-02-09T18:00:20.916Z,35.63
2018-02-09T18:02:55.219Z,35.57
2018-02-09T18:05:29.263Z,33.00
2018-02-09T18:08:03.058Z,35.37
2018-02-09T18:10:38.500Z,39.30
2018-02-09T18:13:12.646Z,34.27
2018-02-09T18:15:46.482Z,35.00
2018-02-09T18:18:20.353Z,32.13
2018-02-09T18:20:54.143Z,32.53
2018-02-09T18:23:28.805Z,35.10
2018-02-09T18:26:02.887Z,34.20
2018-02-09T18:28:37.201Z,32.20
2018-02-09T18:31:10.971Z,32.33
2018-02-09T18:33:45.424Z,32.33
2018-02-09T18:36:19.412Z,32.43
2018-02-09T18:38:54.793Z,32.97
2018-02-09T18:41:28.799Z,32.70
2018-02-09T18:44:03.307Z,32.17
2018-02-09T18:46:37.504Z,32.83
2018-02-09T18:49:12.207Z,33.40
2018-02-09T18:51:46.800Z,32.83
2018-02-09T18:54:20.772Z,32.73
2018-02-09T18:56:56.316Z,32.67
2018-02-09T18:59:30.390Z,32.60
2018-02-09T19:02:04.095Z,32.47
2018-02-09T19:04:39.870Z,32.40
2018-02-09T19:07:13.738Z,34.63
2018-02-09T19:09:48.228Z,33.90
2018-02-09T19:12:22.239Z,36.03
2018-02-09T19:14:57.591Z,35.90
2018-02-09T19:17:31.612Z,65.00
2018-02-09T19:20:06.224Z,37.90
2018-02-09T19:22:40.207Z,35.87
2018-02-09T19:25:14.168Z,36.47
2018-02-09T19:27:48.848Z,36.40
2018-02-09T19:30:23.006Z,35.70
2018-02-09T19:32:56.831Z,35.63
2018-02-09T19:35:30.867Z,33.40
2018-02-09T19:38:05.480Z,34.93
2018-02-09T19:40:39.571Z,33.57
2018-02-09T19:43:13.373Z,33.73
2018-02-09T19:45:47.964Z,33.57
2018-02-09T19:48:22.008Z,33.33
2018-02-09T19:50:56.799Z,32.53
2018-02-09T19:53:30.707Z,34.17
2018-02-09T19:56:05.542Z,34.13
2018-02-09T19:58:39.488Z,34.03
2018-02-09T20:01:13.294Z,33.93
2018-02-09T20:03:58.112Z,33.67
2018-02-09T20:06:34.313Z,33.97
2018-02-09T20:09:08.333Z,33.73
2018-02-09T20:11:42.976Z,34.17
2018-02-09T20:14:17.482Z,35.03
2018-02-09T20:16:51.630Z,35.30
2018-02-09T20:19:26.379Z,35.67
2018-02-09T20:22:00.960Z,34.17
2018-02-09T20:24:36.413Z,36.00
2018-02-09T20:27:10.717Z,34.07
2018-02-09T20:29:45.367Z,35.77
2018-02-09T20:32:19.153Z,35.93
2018-02-09T20:34:53.686Z,34.30
2018-02-09T20:37:27.863Z,34.27
2018-02-09T20:40:01.772Z,34.13
2018-02-09T20:42:36.381Z,34.13
2018-02-09T20:45:10.053Z,35.33
2018-02-09T20:47:44.048Z,33.93
2018-02-09T20:50:17.797Z,34.20
2018-02-09T20:52:51.869Z,34.17
2018-02-09T20:55:26.466Z,31.97
2018-02-09T20:58:00.350Z,35.10
2018-02-09T21:00:34.281Z,36.57
2018-02-09T21:03:10.222Z,37.43
2018-02-09T21:05:45.772Z,33.43
2018-02-09T21:08:20.411Z,33.20
2018-02-09T21:10:54.454Z,34.00
2018-02-09T21:13:28.911Z,36.03
2018-02-09T21:16:02.607Z,32.97
2018-02-09T21:18:37.297Z,32.57
2018-02-09T21:21:11.320Z,34.13
2018-02-09T21:23:46.035Z,36.67
2018-02-09T21:26:19.764Z,34.90
2018-02-09T21:28:54.192Z,35.20
2018-02-09T21:31:28.903Z,39.33
2018-02-09T21:34:02.803Z,42.43
2018-02-09T21:36:36.553Z,34.30
2018-02-09T21:39:10.429Z,39.57
2018-02-09T21:41:44.178Z,37.77
2018-02-09T21:44:17.968Z,36.80
2018-02-09T21:46:52.423Z,35.93
2018-02-09T21:49:26.471Z,39.73
2018-02-09T21:52:00.128Z,35.93
2018-02-09T21:54:34.821Z,33.77
2018-02-09T21:57:08.667Z,36.00
2018-02-09T21:59:43.560Z,32.27
2018-02-09T22:02:17.532Z,34.97
2018-02-09T22:04:52.681Z,34.83
2018-02-09T22:07:26.896Z,34.30
2018-02-09T22:10:00.778Z,37.43
2018-02-09T22:12:34.466Z,35.93
2018-02-09T22:15:08.429Z,35.77
2018-02-09T22:17:42.116Z,35.57
2018-02-09T22:20:17.258Z,36.40
2018-02-09T22:22:52.352Z,36.17
2018-02-09T22:25:26.336Z,36.70
2018-02-09T22:28:00.011Z,40.77
2018-02-09T22:30:33.871Z,38.50
2018-02-09T22:33:08.543Z,36.60
2018-02-09T22:36:06.324Z,34.23
2018-02-09T22:38:40.189Z,37.13
2018-02-09T22:41:15.054Z,36.57
2018-02-09T22:43:49.326Z,34.80
2018-02-09T22:46:24.106Z,38.10
2018-02-09T22:48:58.242Z,35.90
2018-02-09T22:51:32.124Z,38.50
2018-02-09T22:54:05.910Z,38.13
2018-02-09T22:56:40.254Z,38.00
2018-02-09T22:59:14.229Z,36.37
2018-02-09T23:01:48.385Z,36.50
2018-02-09T23:04:23.472Z,35.27
2018-02-09T23:06:57.575Z,37.40
2018-02-09T23:09:32.073Z,38.67
2018-02-09T23:12:05.725Z,37.70
2018-02-09T23:14:40.134Z,38.13
2018-02-09T23:17:14.878Z,38.60
2018-02-09T23:19:49.545Z,36.53
2018-02-09T23:22:23.908Z,41.90
2018-02-09T23:24:58.236Z,36.97
2018-02-09T23:27:32.215Z,38.93
2018-02-09T23:30:06.725Z,36.93
2018-02-09T23:32:41.375Z,37.50
2018-02-09T23:35:16.483Z,39.00
2018-02-09T23:37:50.264Z,36.00
2018-02-09T23:40:23.954Z,37.87
2018-02-09T23:42:58.659Z,37.57
2018-02-09T23:45:32.771Z,39.30
2018-02-09T23:48:06.673Z,36.53
2018-02-09T23:50:40.446Z,36.60
2018-02-09T23:53:14.342Z,37.30
2018-02-09T23:55:48.113Z,36.70
2018-02-09T23:58:22.192Z,39.37
